Time;durP1;ratioP1;P1;durP2;ratioP2;P2;SDS_P1;SDS_P2;PMS_P1;PMS_P2;Temp;Humidity;BMP_temperature;BMP_pressure;BME280_temperature;BME280_humidity;BME280_pressure;Samples;Min_cycle;Max_cycle;Signal;HPM_P1;HPM_P2
2021/10/31 00:02:58;;;;;;;3.70;3.15;;;13.20;99.90;;;;;;6266857;28;20024;-85
2021/10/31 00:05:59;;;;;;;2.90;2.50;;;12.50;99.90;;;;;;6266688;28;20414;-85
2021/10/31 00:08:59;;;;;;;3.20;2.30;;;12.50;99.90;;;;;;6269285;28;20037;-88
2021/10/31 00:12:00;;;;;;;3.85;2.75;;;12.80;99.90;;;;;;6264333;28;20028;-87
2021/10/31 00:15:01;;;;;;;3.45;2.70;;;;;;;;;;6265585;28;20024;-86
2021/10/31 00:18:02;;;;;;;3.55;2.40;;;12.60;99.90;;;;;;6285844;28;20045;-87
2021/10/31 00:21:03;;;;;;;3.45;2.45;;;12.60;99.90;;;;;;6265238;28;20150;-87
2021/10/31 00:24:04;;;;;;;2.80;2.30;;;12.50;99.90;;;;;;6260387;28;20417;-89
2021/10/31 00:27:04;;;;;;;3.92;2.50;;;12.00;99.90;;;;;;6266244;28;20036;-87
2021/10/31 00:30:05;;;;;;;2.13;2.00;;;12.40;99.90;;;;;;6283092;28;20032;-85
2021/10/31 00:33:06;;;;;;;5.30;2.25;;;12.50;99.90;;;;;;6292379;28;20028;-88
2021/10/31 00:36:07;;;;;;;2.97;2.30;;;12.70;99.90;;;;;;6272165;28;20037;-88
2021/10/31 00:39:07;;;;;;;4.22;2.85;;;12.90;99.90;;;;;;6262222;28;20040;-87
2021/10/31 00:42:08;;;;;;;3.17;2.60;;;12.70;99.90;;;;;;6274517;28;20039;-88
2021/10/31 00:45:09;;;;;;;3.00;2.30;;;;;;;;;;6267926;28;20031;-86
2021/10/31 00:48:10;;;;;;;2.70;2.50;;;12.60;99.90;;;;;;6297240;28;20031;-87
2021/10/31 00:51:11;;;;;;;2.88;2.58;;;;;;;;;;6259962;28;20470;-86
2021/10/31 00:54:11;;;;;;;2.47;2.28;;;;;;;;;;6270647;28;20103;-86
2021/10/31 00:57:12;;;;;;;2.72;2.30;;;12.60;99.90;;;;;;6271373;28;20085;-86
2021/10/31 01:00:13;;;;;;;3.13;2.30;;;12.60;99.90;;;;;;6273670;28;20478;-86
2021/10/31 01:03:14;;;;;;;2.53;2.30;;;12.70;99.90;;;;;;6291934;28;20079;-88
2021/10/31 01:06:32;;;;;;;2.50;2.30;;;12.60;99.90;;;;;;6262085;28;20029;-87
2021/10/31 01:10:05;;;;;;;2.40;2.20;;;12.60;99.90;;;;;;6303515;28;20114;-86
2021/10/31 01:13:23;;;;;;;2.45;2.25;;;12.60;99.90;;;;;;6305115;28;20367;-86
2021/10/31 01:16:43;;;;;;;4.80;2.60;;;12.60;99.90;;;;;;6311961;28;20044;-87
2021/10/31 01:20:11;;;;;;;3.78;2.30;;;12.40;99.90;;;;;;6299308;28;20483;-85
2021/10/31 01:23:27;;;;;;;2.50;2.30;;;12.60;99.90;;;;;;6314930;28;20466;-86
2021/10/31 01:27:05;;;;;;;4.97;2.45;;;12.30;99.90;;;;;;6303806;28;20031;-86
2021/10/31 01:30:19;;;;;;;2.15;1.98;;;12.50;99.90;;;;;;6311763;28;20035;-86
2021/10/31 01:33:25;;;;;;;2.72;2.50;;;12.60;99.90;;;;;;6247526;28;20028;-86
2021/10/31 01:36:47;;;;;;;2.00;1.85;;;12.70;99.90;;;;;;6308366;28;20031;-85
2021/10/31 01:39:55;;;;;;;2.90;2.10;;;12.60;99.90;;;;;;6291190;28;20387;-87
2021/10/31 01:43:22;;;;;;;2.63;2.20;;;12.60;99.90;;;;;;6285505;28;20029;-87
2021/10/31 01:46:42;;;;;;;2.35;1.83;;;12.60;99.90;;;;;;6286239;28;20028;-87
2021/10/31 01:50:10;;;;;;;3.50;1.90;;;12.60;99.90;;;;;;6288115;28;20370;-86
2021/10/31 01:53:28;;;;;;;2.00;1.80;;;12.80;99.90;;;;;;6310943;28;20040;-88
2021/10/31 01:56:30;;;;;;;2.38;2.15;;;12.80;99.90;;;;;;6310284;28;20062;-86
2021/10/31 01:59:33;;;;;;;4.82;3.00;;;12.70;99.90;;;;;;6258869;28;20032;-86
2021/10/31 02:02:37;;;;;;;2.38;2.17;;;12.70;99.90;;;;;;6270646;28;20066;-88
2021/10/31 02:05:37;;;;;;;2.15;1.98;;;12.60;99.90;;;;;;6258774;28;20024;-86
2021/10/31 02:08:39;;;;;;;2.08;1.88;;;12.90;99.90;;;;;;6271174;28;20089;-86
2021/10/31 02:11:39;;;;;;;2.10;1.88;;;12.80;99.90;;;;;;6251023;28;20515;-86
2021/10/31 02:14:40;;;;;;;2.58;2.13;;;;;;;;;;6270933;28;20032;-86
2021/10/31 02:17:42;;;;;;;2.30;2.10;;;12.90;99.90;;;;;;6283220;28;20083;-86
2021/10/31 02:20:43;;;;;;;4.70;2.05;;;;;;;;;;6266811;28;20081;-87
2021/10/31 02:23:45;;;;;;;2.40;2.05;;;12.70;99.90;;;;;;6276861;28;20035;-86
2021/10/31 02:26:46;;;;;;;2.40;2.20;;;12.80;99.90;;;;;;6267923;28;20039;-86
2021/10/31 02:29:49;;;;;;;1.95;1.85;;;12.80;99.90;;;;;;6261464;28;20028;-87
2021/10/31 02:32:51;;;;;;;2.10;1.92;;;12.90;99.90;;;;;;6287128;28;20115;-88
2021/10/31 02:35:52;;;;;;;3.28;2.85;;;;;;;;;;6272324;28;20503;-86
2021/10/31 02:38:53;;;;;;;3.28;2.08;;;;;;;;;;6285674;28;20047;-88
2021/10/31 02:41:53;;;;;;;6.45;2.10;;;12.90;99.90;;;;;;6268713;28;20374;-88
2021/10/31 02:44:54;;;;;;;3.28;1.75;;;;;;;;;;6267400;28;20021;-89
2021/10/31 02:48:02;;;;;;;1.95;1.83;;;12.90;99.90;;;;;;6288733;28;20036;-86
2021/10/31 02:51:10;;;;;;;2.28;1.88;;;12.70;99.90;;;;;;6266666;28;20052;-88
2021/10/31 02:54:23;;;;;;;2.28;2.08;;;13.00;99.90;;;;;;6294619;28;20023;-88
2021/10/31 02:57:31;;;;;;;2.00;1.80;;;12.90;99.90;;;;;;6313001;28;20051;-86
2021/10/31 03:00:31;;;;;;;2.97;1.85;;;12.90;99.90;;;;;;6285929;28;20043;-86
2021/10/31 03:03:33;;;;;;;2.47;2.28;;;12.90;99.90;;;;;;6263888;28;20029;-87
2021/10/31 03:06:33;;;;;;;1.48;1.38;;;12.80;99.90;;;;;;6255726;28;20039;-88
2021/10/31 03:09:35;;;;;;;1.80;1.70;;;12.90;99.90;;;;;;6282405;28;20023;-88
2021/10/31 03:12:35;;;;;;;3.35;1.83;;;12.90;99.90;;;;;;6268804;28;20025;-86
2021/10/31 03:15:36;;;;;;;2.17;1.98;;;13.10;99.90;;;;;;6262139;28;20029;-87
2021/10/31 03:18:37;;;;;;;2.05;1.75;;;13.00;99.90;;;;;;6262511;28;20040;-88
2021/10/31 03:21:37;;;;;;;7.68;2.13;;;13.40;99.90;;;;;;6265328;28;20033;-88
2021/10/31 03:24:38;;;;;;;1.85;1.75;;;;;;;;;;6261940;28;20495;-89
2021/10/31 03:27:39;;;;;;;1.88;1.77;;;13.10;99.90;;;;;;6284894;28;20417;-86
2021/10/31 03:30:39;;;;;;;2.63;1.77;;;13.10;99.90;;;;;;6274821;28;20093;-87
2021/10/31 03:33:40;;;;;;;2.03;1.83;;;;;;;;;;6293876;28;20029;-88
2021/10/31 03:36:41;;;;;;;2.22;1.73;;;13.10;99.90;;;;;;6269386;28;20024;-88
2021/10/31 03:39:42;;;;;;;2.67;1.55;;;;;;;;;;6261570;28;20037;-87
2021/10/31 03:42:43;;;;;;;1.52;1.42;;;13.30;99.90;;;;;;6289431;28;20032;-87
2021/10/31 03:45:44;;;;;;;1.58;1.40;;;13.70;99.90;;;;;;6266557;28;20032;-86
2021/10/31 03:48:45;;;;;;;1.58;1.48;;;13.50;99.90;;;;;;6274141;28;20061;-87
2021/10/31 03:51:45;;;;;;;2.28;1.40;;;13.70;99.90;;;;;;6261762;28;20029;-87
2021/10/31 03:54:46;;;;;;;2.33;1.95;;;13.70;99.90;;;;;;6265991;28;20031;-89
2021/10/31 03:57:47;;;;;;;1.45;1.38;;;13.70;99.90;;;;;;6278173;28;20038;-86
2021/10/31 04:00:47;;;;;;;1.60;1.52;;;13.70;99.90;;;;;;6292317;28;20086;-88
2021/10/31 04:03:48;;;;;;;1.67;1.58;;;13.60;99.90;;;;;;6268981;28;20107;-88
2021/10/31 04:06:48;;;;;;;1.67;1.58;;;14.10;99.90;;;;;;6266065;28;20043;-87
2021/10/31 04:09:49;;;;;;;2.80;2.00;;;13.50;99.90;;;;;;6263920;28;20382;-85
2021/10/31 04:12:50;;;;;;;3.33;1.95;;;13.40;99.90;;;;;;6276157;28;20028;-86
2021/10/31 04:15:51;;;;;;;1.80;1.70;;;13.10;99.90;;;;;;6293627;28;20028;-86
2021/10/31 04:18:52;;;;;;;2.72;2.40;;;12.80;99.90;;;;;;6267713;28;20047;-84
2021/10/31 04:21:52;;;;;;;4.18;2.33;;;13.40;99.90;;;;;;6273569;28;20129;-86
2021/10/31 04:24:53;;;;;;;2.20;2.00;;;13.10;99.90;;;;;;6264399;28;20424;-84
2021/10/31 04:27:53;;;;;;;1.88;1.77;;;12.90;99.90;;;;;;6260840;28;20108;-85
2021/10/31 04:30:54;;;;;;;2.55;2.00;;;12.80;99.90;;;;;;6266313;28;20063;-84
2021/10/31 04:33:55;;;;;;;10.80;2.47;;;12.80;99.90;;;;;;6276722;28;20032;-85
2021/10/31 04:36:56;;;;;;;2.15;1.70;;;;;;;;;;6267702;28;20029;-87
2021/10/31 04:39:58;;;;;;;2.95;1.95;;;12.70;99.90;;;;;;6267943;28;20039;-85
2021/10/31 04:42:59;;;;;;;2.38;2.17;;;;;;;;;;6263152;28;20122;-88
2021/10/31 04:46:00;;;;;;;2.20;2.00;;;13.00;99.90;;;;;;6288006;28;20017;-86
2021/10/31 04:49:01;;;;;;;2.15;1.95;;;13.00;99.90;;;;;;6259878;28;20505;-87
2021/10/31 04:52:02;;;;;;;2.90;2.20;;;;;;;;;;6268826;28;20162;-87
2021/10/31 04:55:03;;;;;;;2.45;2.13;;;;;;;;;;6278237;28;20438;-87
2021/10/31 04:58:04;;;;;;;2.03;1.90;;;;;;;;;;6296798;28;20466;-85
2021/10/31 05:01:05;;;;;;;2.15;1.98;;;;;;;;;;6283151;28;20321;-87
2021/10/31 05:04:06;;;;;;;2.60;2.40;;;12.80;99.90;;;;;;6275883;28;20115;-85
2021/10/31 05:07:06;;;;;;;7.45;6.25;;;12.50;99.90;;;;;;6259785;28;20097;-85
2021/10/31 05:10:07;;;;;;;4.43;3.72;;;12.40;99.90;;;;;;6259875;28;20033;-86
2021/10/31 05:13:08;;;;;;;4.93;4.53;;;12.50;99.90;;;;;;6262227;28;20058;-86
2021/10/31 05:16:09;;;;;;;2.70;2.50;;;12.40;99.90;;;;;;6263705;28;20440;-87
2021/10/31 05:19:10;;;;;;;2.42;2.22;;;12.40;99.90;;;;;;6281905;28;20181;-87
2021/10/31 05:22:11;;;;;;;3.35;3.05;;;12.40;99.90;;;;;;6272217;28;20038;-87
2021/10/31 05:25:12;;;;;;;2.08;1.52;;;;;;;;;;6268295;28;20036;-87
2021/10/31 05:28:12;;;;;;;3.22;2.00;;;12.50;99.90;;;;;;6274778;28;20545;-88
2021/10/31 05:31:13;;;;;;;4.55;2.40;;;12.40;99.90;;;;;;6272207;28;20031;-88
2021/10/31 05:34:13;;;;;;;2.20;2.00;;;11.90;99.90;;;;;;6289105;28;20381;-88
2021/10/31 05:37:14;;;;;;;2.10;1.80;;;12.50;99.90;;;;;;6282377;28;20052;-87
2021/10/31 05:40:16;;;;;;;2.58;2.22;;;12.30;99.90;;;;;;6259344;28;20036;-87
2021/10/31 05:43:17;;;;;;;2.40;2.05;;;;;;;;;;6264155;28;20036;-89
2021/10/31 05:46:17;;;;;;;2.80;2.40;;;12.30;99.90;;;;;;6287270;28;20051;-87
2021/10/31 05:49:18;;;;;;;5.13;2.25;;;12.10;99.90;;;;;;6286372;28;20036;-87
2021/10/31 05:52:18;;;;;;;2.38;2.05;;;12.10;99.90;;;;;;6282636;28;20135;-87
2021/10/31 05:55:19;;;;;;;1.90;1.70;;;12.50;99.90;;;;;;6273276;28;20075;-87
2021/10/31 05:58:20;;;;;;;2.40;2.15;;;12.20;99.90;;;;;;6273457;28;20111;-87
2021/10/31 06:01:20;;;;;;;3.03;2.40;;;12.40;99.90;;;;;;6279092;28;20036;-86
2021/10/31 06:04:24;;;;;;;2.97;2.10;;;12.30;99.90;;;;;;6288075;28;20028;-86
2021/10/31 06:07:26;;;;;;;2.80;2.47;;;12.00;99.90;;;;;;6277697;28;20489;-86
2021/10/31 06:10:27;;;;;;;3.10;2.17;;;;;;;;;;6273087;28;20394;-86
2021/10/31 06:13:27;;;;;;;2.50;2.30;;;12.10;99.90;;;;;;6299799;28;20073;-85
2021/10/31 06:16:28;;;;;;;3.15;2.60;;;12.10;99.90;;;;;;6263808;28;20232;-85
2021/10/31 06:19:30;;;;;;;2.80;2.47;;;12.50;99.90;;;;;;6271136;28;20036;-85
2021/10/31 06:22:30;;;;;;;5.57;4.35;;;12.00;99.90;;;;;;6263253;28;20028;-85
2021/10/31 06:25:31;;;;;;;22.77;14.10;;;12.00;99.90;;;;;;6264487;28;20078;-85
2021/10/31 06:28:32;;;;;;;7.18;2.83;;;11.90;99.90;;;;;;6253274;28;20032;-85
2021/10/31 06:31:32;;;;;;;2.75;2.00;;;12.20;99.90;;;;;;6271045;28;20462;-84
2021/10/31 06:34:33;;;;;;;4.20;2.90;;;12.10;99.90;;;;;;6258668;28;20090;-85
2021/10/31 06:37:34;;;;;;;6.32;4.63;;;12.00;99.90;;;;;;6267623;28;20406;-85
2021/10/31 06:40:35;;;;;;;6.60;5.22;;;;;;;;;;6259127;28;20044;-85
2021/10/31 06:43:36;;;;;;;4.40;3.42;;;11.90;99.90;;;;;;6295601;28;20032;-87
2021/10/31 06:46:36;;;;;;;3.38;2.80;;;11.90;99.90;;;;;;6264137;28;20035;-88
2021/10/31 06:49:40;;;;;;;2.47;2.22;;;12.30;99.90;;;;;;6272283;28;20024;-88
2021/10/31 06:52:50;;;;;;;4.10;3.13;;;11.90;99.90;;;;;;6258893;28;20075;-85
2021/10/31 06:55:50;;;;;;;3.53;2.60;;;12.00;99.90;;;;;;6275979;28;20384;-84
2021/10/31 06:58:51;;;;;;;1.92;1.80;;;12.10;99.90;;;;;;6257829;28;20120;-85
2021/10/31 07:01:52;;;;;;;4.18;2.10;;;12.00;99.90;;;;;;6257779;28;20032;-86
2021/10/31 07:04:53;;;;;;;1.75;1.65;;;12.00;99.90;;;;;;6257986;28;20036;-85
2021/10/31 07:07:53;;;;;;;1.92;1.83;;;12.10;99.90;;;;;;6260417;28;20024;-86
2021/10/31 07:10:54;;;;;;;2.28;1.80;;;12.40;99.90;;;;;;6261256;28;20029;-84
2021/10/31 07:13:55;;;;;;;3.95;2.35;;;12.20;99.90;;;;;;6263444;28;20028;-84
2021/10/31 07:16:56;;;;;;;3.92;2.70;;;;;;;;;;6262144;28;20047;-87
2021/10/31 07:19:57;;;;;;;5.93;2.92;;;;;;;;;;6277583;28;20470;-89
2021/10/31 07:22:58;;;;;;;3.38;2.35;;;;;;;;;;6281197;28;20023;-87
2021/10/31 07:25:58;;;;;;;3.83;2.45;;;12.60;99.90;;;;;;6283087;28;20025;-84
2021/10/31 07:28:59;;;;;;;2.22;2.03;;;;;;;;;;6265680;28;20044;-85
2021/10/31 07:32:01;;;;;;;3.70;2.40;;;12.50;99.90;;;;;;6278219;28;20485;-85
2021/10/31 07:35:02;;;;;;;2.57;2.17;;;12.60;99.90;;;;;;6279343;28;20024;-85
2021/10/31 07:38:03;;;;;;;3.25;2.50;;;13.00;99.90;;;;;;6282460;28;20561;-86
2021/10/31 07:41:04;;;;;;;2.55;2.35;;;12.90;99.90;;;;;;6295094;28;20021;-84
2021/10/31 07:44:05;;;;;;;3.83;2.80;;;;;;;;;;6272853;28;20043;-86
2021/10/31 07:47:06;;;;;;;2.47;2.28;;;13.20;99.90;;;;;;6272250;28;20562;-86
2021/10/31 07:50:07;;;;;;;3.63;3.15;;;12.90;99.90;;;;;;6280411;28;20036;-85
2021/10/31 07:53:09;;;;;;;2.95;2.75;;;12.90;99.90;;;;;;6302603;28;20081;-86
2021/10/31 07:56:12;;;;;;;3.45;2.60;;;13.00;99.90;;;;;;6283063;28;20147;-84
2021/10/31 07:59:13;;;;;;;3.42;2.85;;;13.20;99.90;;;;;;6277856;28;20089;-82
2021/10/31 08:02:14;;;;;;;4.25;2.95;;;13.10;99.90;;;;;;6293560;28;20111;-81
2021/10/31 08:05:14;;;;;;;3.17;2.80;;;13.10;99.90;;;;;;6293857;28;20470;-81
2021/10/31 08:08:21;;;;;;;4.25;2.95;;;13.90;99.90;;;;;;6294606;28;20036;-82
2021/10/31 08:11:22;;;;;;;5.53;4.30;;;13.50;99.90;;;;;;6261628;28;20615;-81
2021/10/31 08:14:22;;;;;;;3.45;2.85;;;14.70;99.90;;;;;;6293684;28;20029;-83
2021/10/31 08:17:23;;;;;;;3.40;2.40;;;;;;;;;;6271427;28;20036;-87
2021/10/31 08:20:24;;;;;;;3.72;2.58;;;15.50;99.90;;;;;;6286489;28;20418;-89
2021/10/31 08:23:25;;;;;;;3.75;2.67;;;15.80;99.90;;;;;;6262498;28;20119;-86
2021/10/31 08:26:26;;;;;;;2.30;2.10;;;16.10;99.90;;;;;;6284472;28;20114;-87
2021/10/31 08:29:27;;;;;;;2.72;2.45;;;16.70;99.90;;;;;;6276232;28;20397;-90
2021/10/31 08:32:28;;;;;;;2.60;2.40;;;;;;;;;;6260309;28;20032;-88
2021/10/31 08:35:30;;;;;;;5.03;3.33;;;;;;;;;;6282087;28;20043;-89
2021/10/31 08:38:30;;;;;;;3.60;2.92;;;;;;;;;;6271690;28;20043;-86
2021/10/31 08:41:32;;;;;;;4.03;2.95;;;;;;;;;;6279998;28;20402;-85
2021/10/31 08:44:37;;;;;;;3.78;2.70;;;16.60;99.90;;;;;;6305055;28;20020;-87
2021/10/31 08:47:38;;;;;;;3.35;3.05;;;16.80;99.90;;;;;;6278259;28;20032;-88
2021/10/31 08:50:39;;;;;;;2.58;2.38;;;;;;;;;;6260096;28;20394;-86
2021/10/31 08:53:40;;;;;;;2.30;2.00;;;;;;;;;;6284728;28;20072;-85
2021/10/31 08:56:41;;;;;;;3.60;2.38;;;;;;;;;;6287423;28;20058;-90
2021/10/31 08:59:42;;;;;;;2.65;2.28;;;;;;;;;;6278977;28;20170;-84
2021/10/31 09:02:43;;;;;;;4.57;2.35;;;18.60;99.90;;;;;;6292254;28;20062;-87
2021/10/31 09:05:44;;;;;;;3.47;3.17;;;18.70;99.90;;;;;;6263312;28;20035;-87
2021/10/31 09:08:45;;;;;;;2.72;2.15;;;18.50;99.90;;;;;;6279185;28;20787;-87
2021/10/31 09:11:46;;;;;;;2.42;2.22;;;18.70;99.90;;;;;;6271674;28;20043;-88
2021/10/31 09:14:47;;;;;;;2.50;2.30;;;18.80;99.90;;;;;;6259528;28;20039;-87
2021/10/31 09:17:48;;;;;;;2.45;2.25;;;18.70;99.90;;;;;;6259294;28;20064;-85
2021/10/31 09:20:48;;;;;;;2.83;2.40;;;18.70;99.90;;;;;;6259241;28;20115;-89
2021/10/31 09:23:50;;;;;;;4.28;2.55;;;18.80;99.90;;;;;;6260383;28;20034;-89
2021/10/31 09:26:50;;;;;;;3.00;2.37;;;18.50;99.90;;;;;;6262982;28;20031;-88
2021/10/31 09:29:51;;;;;;;2.60;2.40;;;18.60;99.90;;;;;;6266706;28;20393;-85
2021/10/31 09:32:52;;;;;;;3.55;2.20;;;;;;;;;;6268106;28;20033;-89
2021/10/31 09:35:57;;;;;;;2.30;2.10;;;18.70;99.90;;;;;;6288435;28;20081;-88
2021/10/31 09:38:58;;;;;;;3.75;2.90;;;18.50;99.90;;;;;;6265022;28;20143;-90
2021/10/31 09:42:00;;;;;;;3.80;3.40;;;18.50;99.90;;;;;;6264808;28;20054;-86
2021/10/31 09:45:02;;;;;;;4.47;2.85;;;18.60;99.90;;;;;;6261052;28;20055;-88
2021/10/31 09:48:05;;;;;;;2.42;2.20;;;19.00;99.90;;;;;;6273426;28;20032;-88
2021/10/31 09:51:06;;;;;;;3.75;2.28;;;19.30;99.90;;;;;;6266605;28;20126;-88
2021/10/31 09:54:07;;;;;;;2.72;2.35;;;19.40;99.90;;;;;;6273481;28;20054;-91
2021/10/31 09:57:08;;;;;;;3.23;2.93;;;19.20;99.90;;;;;;6273050;28;20114;-87
2021/10/31 10:00:10;;;;;;;4.57;3.10;;;19.30;99.90;;;;;;6265211;28;20048;-88
2021/10/31 10:03:35;;;;;;;3.92;2.95;;;19.30;99.90;;;;;;6273810;28;20035;-86
2021/10/31 10:06:49;;;;;;;3.10;2.80;;;18.20;99.90;;;;;;6268443;28;20067;-88
2021/10/31 10:09:56;;;;;;;5.00;2.88;;;19.10;99.90;;;;;;6277189;28;20063;-90
2021/10/31 10:12:56;;;;;;;3.65;2.92;;;19.30;99.90;;;;;;6265687;28;20024;-87
2021/10/31 10:16:20;;;;;;;3.83;2.95;;;19.10;99.90;;;;;;6271044;28;20028;-88
2021/10/31 10:19:22;;;;;;;3.90;2.80;;;19.10;99.90;;;;;;6268033;28;20048;-87
2021/10/31 10:22:25;;;;;;;2.88;2.40;;;19.40;99.90;;;;;;6269654;28;20359;-91
2021/10/31 10:25:37;;;;;;;;;;;19.40;99.90;;;;;;6260410;28;20028;-88
2021/10/31 10:28:38;;;;;;;2.78;2.50;;;;;;;;;;6283852;28;19904;-87
2021/10/31 10:32:12;;;;;;;2.40;2.20;;;21.10;99.90;;;;;;6271074;28;20028;-88
2021/10/31 10:35:16;;;;;;;3.35;2.40;;;22.10;99.90;;;;;;6227649;28;20060;-89
2021/10/31 10:38:17;;;;;;;2.17;1.98;;;22.20;99.90;;;;;;6246286;28;20037;-86
2021/10/31 10:41:36;;;;;;;2.10;1.90;;;22.60;99.90;;;;;;6222196;28;20036;-87
2021/10/31 10:44:40;;;;;;;2.75;1.80;;;22.70;99.90;;;;;;6237041;28;20040;-89
2021/10/31 10:47:53;;;;;;;3.20;1.70;;;23.10;99.60;;;;;;6239921;28;20558;-87
2021/10/31 10:50:54;;;;;;;2.17;2.00;;;23.80;99.90;;;;;;6229873;28;20542;-89
2021/10/31 10:54:21;;;;;;;3.13;2.70;;;23.70;96.30;;;;;;6239264;28;20115;-84
2021/10/31 10:57:32;;;;;;;4.47;2.35;;;23.80;94.70;;;;;;6230383;28;20514;-86
2021/10/31 11:00:40;;;;;;;2.58;2.38;;;23.90;94.20;;;;;;6232549;28;20653;-87
2021/10/31 11:03:40;;;;;;;2.40;2.20;;;23.90;92.90;;;;;;6245791;28;20068;-88
2021/10/31 11:06:41;;;;;;;1.90;1.80;;;24.10;93.40;;;;;;6236294;28;20029;-86
2021/10/31 11:09:44;;;;;;;2.93;1.83;;;23.70;93.30;;;;;;6227989;28;20033;-86
2021/10/31 11:12:48;;;;;;;1.90;1.80;;;23.80;93.30;;;;;;6268368;28;20033;-88
2021/10/31 11:15:49;;;;;;;1.90;1.80;;;23.90;93.60;;;;;;6286633;28;20382;-87
2021/10/31 11:18:49;;;;;;;1.87;1.70;;;23.70;94.30;;;;;;6264177;28;20040;-85
2021/10/31 11:21:54;;;;;;;1.70;1.60;;;23.90;93.40;;;;;;6265425;28;20074;-85
2021/10/31 11:24:55;;;;;;;1.98;1.77;;;;;;;;;;6269317;28;20033;-87
2021/10/31 11:27:57;;;;;;;2.67;2.08;;;23.40;95.70;;;;;;6275963;28;20536;-83
2021/10/31 11:30:57;;;;;;;2.33;2.13;;;22.80;99.90;;;;;;6273202;28;20026;-87
2021/10/31 11:33:58;;;;;;;2.70;2.50;;;22.90;99.90;;;;;;6288164;28;20035;-87
2021/10/31 11:36:59;;;;;;;3.03;2.55;;;22.40;99.90;;;;;;6272026;28;20664;-88
2021/10/31 11:40:09;;;;;;;2.65;2.45;;;22.70;99.90;;;;;;6269723;28;20087;-91
2021/10/31 11:43:37;;;;;;;3.47;3.00;;;22.80;99.90;;;;;;6302663;28;20025;-88
2021/10/31 11:46:41;;;;;;;4.30;2.70;;;21.90;99.90;;;;;;6283460;28;20542;-86
2021/10/31 11:50:10;;;;;;;2.85;2.60;;;21.70;99.90;;;;;;6248359;28;20032;-86
2021/10/31 11:53:17;;;;;;;3.95;2.50;;;21.60;99.90;;;;;;6297523;28;20035;-86
2021/10/31 11:56:25;;;;;;;2.97;2.67;;;21.00;99.90;;;;;;6265892;28;20059;-90
2021/10/31 11:59:27;;;;;;;9.38;3.53;;;;;;;;;;6274258;28;20028;-87
2021/10/31 12:02:42;;;;;;;3.00;2.30;;;21.20;99.90;;;;;;6286004;28;20034;-87
2021/10/31 12:05:43;;;;;;;2.75;2.53;;;21.20;99.90;;;;;;6295610;28;20040;-82
2021/10/31 12:08:56;;;;;;;3.15;2.63;;;21.10;99.90;;;;;;6284645;28;20039;-84
2021/10/31 12:11:57;;;;;;;5.13;2.78;;;21.30;99.90;;;;;;6315971;28;20059;-85
2021/10/31 12:14:58;;;;;;;2.50;2.30;;;;;;;;;;6300289;28;20060;-87
2021/10/31 12:18:04;;;;;;;3.57;2.27;;;22.20;99.90;;;;;;6293671;28;20494;-84
2021/10/31 12:21:04;;;;;;;3.33;2.30;;;22.30;99.90;;;;;;6277159;28;20029;-82
2021/10/31 12:24:09;;;;;;;2.78;2.30;;;22.40;99.90;;;;;;6260599;28;20382;-85
2021/10/31 12:27:18;;;;;;;2.00;1.90;;;22.60;99.90;;;;;;6276720;28;20082;-84
2021/10/31 12:30:30;;;;;;;5.68;2.50;;;22.60;98.10;;;;;;6243827;28;20060;-83
2021/10/31 12:33:31;;;;;;;3.38;2.38;;;22.60;97.20;;;;;;6318936;28;20449;-82
2021/10/31 12:36:32;;;;;;;3.47;2.13;;;22.60;98.80;;;;;;6279032;28;20034;-81
2021/10/31 12:39:32;;;;;;;3.90;2.40;;;22.40;98.20;;;;;;6274932;28;20086;-80
2021/10/31 12:42:34;;;;;;;3.65;2.60;;;22.30;99.20;;;;;;6294928;28;20458;-79
2021/10/31 12:45:34;;;;;;;3.70;2.70;;;22.30;99.70;;;;;;6295929;28;20028;-81
2021/10/31 12:48:36;;;;;;;3.30;2.90;;;22.20;99.90;;;;;;6263859;28;20459;-79
2021/10/31 12:55:02;;;;;;;3.28;2.55;;;22.30;99.60;;;;;;6310120;28;20071;-85
2021/10/31 12:58:16;;;;;;;3.00;2.50;;;22.60;98.70;;;;;;6301133;28;20120;-88
2021/10/31 13:01:17;;;;;;;5.65;2.90;;;22.00;99.20;;;;;;6287434;28;20051;-86
2021/10/31 13:04:18;;;;;;;4.65;2.63;;;22.10;99.90;;;;;;6262566;28;20466;-85
2021/10/31 13:07:24;;;;;;;13.80;3.65;;;21.90;98.70;;;;;;6261408;28;20051;-84
2021/10/31 13:10:33;;;;;;;13.05;4.80;;;21.50;99.90;;;;;;6269304;28;20101;-85
2021/10/31 13:13:34;;;;;;;3.08;2.67;;;21.50;99.90;;;;;;6261692;28;20081;-83
2021/10/31 13:16:35;;;;;;;3.92;3.05;;;21.30;99.90;;;;;;6259449;28;20040;-85
2021/10/31 13:19:37;;;;;;;6.00;2.55;;;21.10;99.90;;;;;;6259171;28;20098;-84
2021/10/31 13:22:38;;;;;;;4.05;2.70;;;;;;;;;;6264517;28;20024;-84
2021/10/31 13:25:51;;;;;;;2.97;2.67;;;21.00;99.90;;;;;;6267020;28;20024;-86
2021/10/31 13:28:51;;;;;;;8.13;4.00;;;20.80;99.90;;;;;;6261289;28;20060;-82
2021/10/31 13:31:52;;;;;;;3.28;2.60;;;20.70;99.90;;;;;;6261368;28;20035;-83
2021/10/31 13:34:53;;;;;;;4.32;3.55;;;20.60;99.90;;;;;;6261135;28;20417;-83
2021/10/31 13:38:05;;;;;;;2.95;2.50;;;20.30;99.90;;;;;;6264716;28;20028;-82
2021/10/31 13:41:06;;;;;;;3.20;2.65;;;20.30;99.90;;;;;;6275573;28;20512;-83
2021/10/31 13:44:12;;;;;;;3.00;2.50;;;20.30;99.90;;;;;;6258341;28;20134;-83
2021/10/31 13:47:31;;;;;;;2.80;2.58;;;20.10;99.90;;;;;;6293912;28;20029;-86
2021/10/31 13:50:32;;;;;;;2.92;2.40;;;20.10;99.90;;;;;;6286175;28;20719;-84
2021/10/31 13:53:36;;;;;;;3.78;2.50;;;20.00;99.90;;;;;;6295574;28;20032;-87
2021/10/31 14:00:02;;;;;;;3.38;2.78;;;20.10;99.90;;;;;;6270155;28;20040;-87
2021/10/31 14:03:03;;;;;;;3.50;2.45;;;;;;;;;;6258685;28;20028;-86
2021/10/31 14:06:07;;;;;;;3.08;2.60;;;20.00;99.90;;;;;;6275472;28;20032;-85
2021/10/31 14:09:09;;;;;;;3.28;2.90;;;20.20;99.90;;;;;;6258078;28;20539;-86
2021/10/31 14:12:21;;;;;;;5.40;3.40;;;20.40;99.90;;;;;;6258403;28;20808;-83
2021/10/31 14:15:22;;;;;;;3.22;2.92;;;20.50;99.90;;;;;;6259296;28;20489;-83
2021/10/31 14:18:23;;;;;;;4.35;2.83;;;;;;;;;;6261906;28;20048;-83
2021/10/31 14:21:23;;;;;;;2.85;2.40;;;20.40;99.90;;;;;;6307990;28;20069;-83
2021/10/31 14:24:24;;;;;;;2.65;2.30;;;20.40;99.90;;;;;;6321233;28;20797;-82
2021/10/31 14:27:27;;;;;;;3.38;3.08;;;;;;;;;;6307721;28;20032;-82
2021/10/31 14:30:29;;;;;;;3.78;3.03;;;20.30;99.90;;;;;;6307370;28;20067;-83
2021/10/31 14:33:31;;;;;;;4.70;2.97;;;20.30;99.90;;;;;;6263453;28;20028;-82
2021/10/31 14:36:33;;;;;;;;;;;20.20;99.90;;;;;;6279667;28;20043;-82
2021/10/31 14:39:34;;;;;;;3.20;2.90;;;20.50;99.90;;;;;;6279759;28;19943;-83
2021/10/31 14:42:35;;;;;;;2.95;2.67;;;19.70;99.90;;;;;;6263508;28;20032;-83
2021/10/31 14:45:35;;;;;;;3.95;3.22;;;19.80;99.90;;;;;;6304027;28;20067;-81
2021/10/31 14:48:52;;;;;;;4.88;3.03;;;19.60;99.90;;;;;;6277440;28;20028;-82
2021/10/31 14:52:00;;;;;;;3.83;3.10;;;19.50;99.90;;;;;;6295725;28;20025;-82
2021/10/31 14:55:01;;;;;;;4.88;3.45;;;19.20;99.90;;;;;;6278533;28;20071;-83
2021/10/31 14:58:01;;;;;;;4.80;3.50;;;19.10;99.90;;;;;;6262339;28;20431;-83
2021/10/31 15:01:02;;;;;;;3.40;3.10;;;19.00;99.90;;;;;;6295158;28;20047;-82
2021/10/31 15:04:04;;;;;;;10.52;6.55;;;18.90;99.90;;;;;;6273667;28;20033;-82
2021/10/31 15:07:05;;;;;;;3.75;3.35;;;18.90;99.90;;;;;;6262322;28;20050;-83
2021/10/31 15:10:07;;;;;;;4.30;3.50;;;18.70;99.90;;;;;;6295068;28;20086;-82
2021/10/31 15:13:08;;;;;;;3.65;2.92;;;18.60;99.90;;;;;;6262241;28;20039;-83
2021/10/31 15:16:09;;;;;;;7.03;3.42;;;18.60;99.90;;;;;;6278104;28;20032;-83
2021/10/31 15:19:09;;;;;;;4.85;3.40;;;18.40;99.90;;;;;;6278414;28;20040;-81
2021/10/31 15:22:10;;;;;;;4.68;3.17;;;18.40;99.90;;;;;;6275884;28;20032;-81
2021/10/31 15:25:11;;;;;;;5.97;3.05;;;18.20;99.90;;;;;;6270361;28;20032;-83
2021/10/31 15:28:11;;;;;;;3.60;3.30;;;18.20;99.90;;;;;;6293360;28;20111;-81
2021/10/31 15:31:12;;;;;;;4.30;3.40;;;18.10;99.90;;;;;;6267208;28;20565;-82
2021/10/31 15:34:13;;;;;;;8.85;4.35;;;18.00;99.90;;;;;;6277712;28;20111;-83
2021/10/31 15:37:14;;;;;;;9.02;6.88;;;17.90;99.90;;;;;;6276725;28;20487;-82
2021/10/31 15:40:15;;;;;;;4.60;3.53;;;17.80;99.90;;;;;;6268474;28;20040;-82
2021/10/31 15:43:16;;;;;;;4.20;3.80;;;;;;;;;;6276525;28;20033;-83
2021/10/31 15:46:17;;;;;;;4.95;3.40;;;17.70;99.90;;;;;;6290337;28;20056;-82
2021/10/31 15:49:17;;;;;;;3.95;3.40;;;17.60;99.90;;;;;;6262866;28;20020;-82
2021/10/31 15:52:18;;;;;;;7.13;4.38;;;17.50;99.90;;;;;;6286074;28;20028;-81
2021/10/31 15:55:19;;;;;;;6.53;4.45;;;17.00;99.90;;;;;;6276950;28;20063;-81
2021/10/31 15:58:20;;;;;;;6.97;4.07;;;;;;;;;;6261099;28;20024;-81
2021/10/31 16:01:21;;;;;;;9.33;6.20;;;16.70;99.90;;;;;;6294253;28;20040;-83
2021/10/31 16:04:22;;;;;;;5.28;4.50;;;16.80;99.90;;;;;;6260186;28;20119;-84
2021/10/31 16:07:23;;;;;;;5.43;3.88;;;16.50;99.90;;;;;;6258910;28;20056;-85
2021/10/31 16:10:24;;;;;;;4.13;3.50;;;16.30;99.90;;;;;;6257835;28;20483;-84
2021/10/31 16:13:25;;;;;;;5.70;3.70;;;;;;;;;;6263307;28;20363;-84
2021/10/31 16:16:25;;;;;;;9.02;3.78;;;16.30;99.90;;;;;;6279146;28;20035;-84
2021/10/31 16:19:26;;;;;;;7.57;3.42;;;;;;;;;;6263107;28;20037;-83
2021/10/31 16:22:27;;;;;;;5.13;4.30;;;16.30;99.90;;;;;;6279717;28;20024;-87